Terminal Aerodrome Forecast
Issued by NWS Cleveland, OH

Home | Current Version | Previous Version | Graphics & Text | Print | Product List | Glossary On
Versions: 1 2 3 4 5 6 7 8 9 10 11 12 13 14 15 16 17
296
FTUS41 KCLE 072331
TAFYNG
TAF
KYNG 072331Z 0800/0824 19010KT P6SM SCT050 BKN120
     FM080600 18006KT P6SM SCT025 OVC050
     FM081500 16005KT 3SM -RASN BR OVC012
     FM081800 16006KT 2SM -SN BR OVC006=

USA.gov is the U.S. government's official web portal to all federal, state and local government web resources and services.